Time;durP1;ratioP1;P1;durP2;ratioP2;P2;SDS_P1;SDS_P2;PMS_P1;PMS_P2;Temp;Humidity;BMP_temperature;BMP_pressure;BME280_temperature;BME280_humidity;BME280_pressure;Samples;Min_cycle;Max_cycle;Signal;HPM_P1;HPM_P2
2022/10/27 00:03:57;;;;;;;28.03;14.10;;;;;;;10.83;100.00;101403.00;5156606;57;1143424;-77
2022/10/27 00:09:04;;;;;;;22.43;14.73;;;;;;;10.79;100.00;101397.52;5156385;57;1143179;-76
2022/10/27 00:14:09;;;;;;;29.55;14.40;;;;;;;10.68;100.00;101403.51;5156350;57;1143189;-76
2022/10/27 00:19:16;;;;;;;21.07;13.50;;;;;;;10.66;100.00;101399.25;5156355;57;1143092;-75
2022/10/27 00:24:22;;;;;;;17.80;11.40;;;;;;;10.70;100.00;101402.91;5088821;57;1143337;-74
2022/10/27 00:29:29;;;;;;;17.17;11.80;;;;;;;10.72;100.00;101406.31;5043756;58;1143152;-77
2022/10/27 00:34:35;;;;;;;19.15;12.60;;;;;;;10.79;100.00;101406.78;5072483;58;1143118;-76
2022/10/27 00:39:41;;;;;;;21.47;14.60;;;;;;;10.83;100.00;101418.40;5043161;58;1143152;-76
2022/10/27 00:44:48;;;;;;;21.33;12.17;;;;;;;10.82;100.00;101419.34;5072724;58;1143278;-76
2022/10/27 00:50:04;;;;;;;18.57;11.87;;;;;;;10.79;100.00;101420.01;5086760;57;1143161;-77
2022/10/27 00:55:26;;;;;;;19.20;12.60;;;;;;;10.76;100.00;101418.88;5151004;57;1143691;-75
2022/10/27 01:00:34;;;;;;;22.13;13.17;;;;;;;10.69;100.00;101424.20;5191217;57;1141351;-77
2022/10/27 01:05:41;;;;;;;22.33;14.23;;;;;;;10.58;100.00;101417.77;5193319;57;1145442;-76
2022/10/27 01:10:47;;;;;;;17.23;12.55;;;;;;;10.47;100.00;101412.79;5228002;56;1145208;-77
2022/10/27 01:16:46;;;;;;;28.27;12.57;;;;;;;10.33;100.00;101412.33;5190789;57;1145171;-76
2022/10/27 01:22:14;;;;;;;25.90;12.80;;;;;;;10.29;100.00;101413.94;5164925;57;1145069;-75
2022/10/27 01:27:53;;;;;;;28.60;13.70;;;;;;;10.31;100.00;101422.63;5105862;58;1145491;-77
2022/10/27 01:33:06;;;;;;;27.65;14.55;;;;;;;10.30;100.00;101425.73;5059979;58;1145189;-77
2022/10/27 01:38:25;;;;;;;22.62;12.50;;;;;;;10.21;100.00;101427.17;5105427;58;1145269;-76
2022/10/27 01:43:33;;;;;;;31.33;16.47;;;;;;;10.27;100.00;101429.03;5105645;58;1145254;-76
2022/10/27 01:48:39;;;;;;;34.07;16.43;;;;;;;10.26;100.00;101440.09;5104840;57;1145215;-77
2022/10/27 01:53:48;;;;;;;31.40;16.87;;;;;;;10.05;100.00;101454.13;5074618;57;1145394;-76
2022/10/27 01:59:23;;;;;;;41.27;17.27;;;;;;;9.94;100.00;101453.05;5072920;57;1145230;-77
2022/10/27 02:04:57;;;;;;;39.87;20.43;;;;;;;10.02;100.00;101451.66;5072792;57;1141063;-77
2022/10/27 02:10:08;;;;;;;41.80;19.55;;;;;;;10.04;100.00;101456.86;5073177;57;1143186;-76
2022/10/27 02:15:46;;;;;;;31.47;16.07;;;;;;;10.10;100.00;101457.80;5062342;58;1143137;-75
2022/10/27 02:20:55;;;;;;;28.57;16.23;;;;;;;10.11;100.00;101451.09;5064240;57;1141082;-76
2022/10/27 02:26:23;;;;;;;27.27;16.00;;;;;;;10.06;100.00;101450.55;4992204;58;1145409;-76
2022/10/27 02:31:37;;;;;;;37.47;16.97;;;;;;;10.02;100.00;101450.81;4992123;58;1145158;-76
2022/10/27 02:36:43;;;;;;;29.07;14.70;;;;;;;9.97;100.00;101444.95;4992290;58;1145350;-75
2022/10/27 02:41:49;;;;;;;29.20;15.33;;;;;;;9.92;100.00;101435.99;4992206;58;1143234;-76
2022/10/27 02:46:55;;;;;;;30.20;15.43;;;;;;;9.88;100.00;101445.89;4981949;58;1143125;-77
2022/10/27 02:52:03;;;;;;;33.67;15.77;;;;;;;9.90;100.00;101461.66;5019461;58;1143289;-76
2022/10/27 02:57:09;;;;;;;44.20;19.47;;;;;;;9.83;100.00;101460.30;5100852;58;1143479;-77
2022/10/27 03:02:16;;;;;;;36.30;16.90;;;;;;;9.89;100.00;101465.23;5078757;58;1143324;-75
2022/10/27 03:07:21;;;;;;;24.87;15.20;;;;;;;9.85;100.00;101463.24;5072885;58;1143398;-75
2022/10/27 03:12:27;;;;;;;27.87;13.27;;;;;;;9.82;100.00;101464.73;5072972;58;1143077;-77
2022/10/27 03:17:35;;;;;;;30.07;13.03;;;;;;;9.78;100.00;101467.64;5072897;58;1143412;-75
2022/10/27 03:22:41;;;;;;;24.40;13.50;;;;;;;9.71;100.00;101468.49;5033411;58;1143346;-76
2022/10/27 03:27:47;;;;;;;24.20;12.53;;;;;;;9.70;100.00;101473.86;4987600;58;1143188;-77
2022/10/27 03:32:53;;;;;;;24.90;13.57;;;;;;;9.60;100.00;101480.63;4987536;58;1143448;-76
2022/10/27 03:38:01;;;;;;;23.57;13.13;;;;;;;9.47;100.00;101478.67;4987644;58;1143750;-76
2022/10/27 03:43:06;;;;;;;17.67;11.60;;;;;;;9.41;100.00;101483.01;4999433;58;1143377;-77
2022/10/27 03:48:13;;;;;;;21.10;12.03;;;;;;;9.39;100.00;101480.92;5072853;58;1143418;-77
2022/10/27 03:53:20;;;;;;;20.20;14.03;;;;;;;9.49;100.00;101493.12;5102773;57;1143690;-75
2022/10/27 03:58:25;;;;;;;26.00;14.43;;;;;;;9.56;100.00;101495.80;5103866;58;1143308;-77
2022/10/27 04:03:32;;;;;;;25.43;15.13;;;;;;;9.59;100.00;101507.52;5052795;58;1143460;-75
2022/10/27 04:08:38;;;;;;;26.87;16.97;;;;;;;9.55;100.00;101507.77;4963070;59;1143391;-76
2022/10/27 04:13:46;;;;;;;29.87;14.60;;;;;;;9.50;100.00;101507.55;4991762;59;1143268;-75
2022/10/27 04:18:52;;;;;;;24.27;14.57;;;;;;;9.48;100.00;101513.39;4991555;59;1143131;-76
2022/10/27 04:23:57;;;;;;;30.97;15.60;;;;;;;9.45;100.00;101514.06;5088619;57;1143140;-75
2022/10/27 04:29:03;;;;;;;34.07;16.07;;;;;;;9.44;100.00;101517.64;5125902;57;1143440;-76
2022/10/27 04:34:09;;;;;;;30.20;17.27;;;;;;;9.39;100.00;101507.33;5092987;57;1143134;-75
2022/10/27 04:39:14;;;;;;;35.23;17.23;;;;;;;9.39;100.00;101507.33;5125864;57;1143465;-76
2022/10/27 04:44:20;;;;;;;44.10;21.37;;;;;;;9.44;100.00;101521.13;5093120;57;1143142;-76
2022/10/27 04:49:26;;;;;;;49.23;20.63;;;;;;;9.41;100.00;101513.84;5062191;58;1143399;-75
2022/10/27 04:54:33;;;;;;;43.23;21.67;;;;;;;9.39;100.00;101519.67;5117699;57;1143213;-76
2022/10/27 04:59:39;;;;;;;43.03;21.97;;;;;;;9.37;100.00;101524.19;5096084;58;1143401;-76
2022/10/27 05:04:45;;;;;;;43.60;23.67;;;;;;;9.34;100.00;101527.84;5073150;57;1143135;-77
2022/10/27 05:09:51;;;;;;;42.47;23.47;;;;;;;9.30;100.00;101533.41;5073184;57;1140402;-76
2022/10/27 05:14:57;;;;;;;49.00;24.30;;;;;;;9.27;100.00;101537.06;5084357;57;1141152;-76
2022/10/27 05:20:04;;;;;;;61.10;32.67;;;;;;;9.27;100.00;101539.70;5092164;57;1141104;-77
2022/10/27 05:25:11;;;;;;;81.70;37.17;;;;;;;9.26;100.00;101549.02;5076848;57;1141121;-77
2022/10/27 05:30:17;;;;;;;77.47;38.00;;;;;;;9.18;100.00;101551.61;5123753;57;1141094;-76
2022/10/27 05:35:22;;;;;;;73.70;37.50;;;;;;;9.10;100.00;101558.26;5045283;57;1141308;-75
2022/10/27 05:40:33;;;;;;;55.73;30.77;;;;;;;9.12;100.00;101569.59;5080020;57;1141221;-77
2022/10/27 05:45:35;;;;;;;60.77;29.90;;;;;;;8.99;100.00;101590.98;5047799;57;1141488;-74
2022/10/27 05:50:41;;;;;;;66.75;30.95;;;;;;;8.81;100.00;101583.11;5078218;57;1141323;-76
2022/10/27 05:55:50;;;;;;;83.63;38.97;;;;;;;8.74;100.00;101580.41;5088215;57;1141579;-75
2022/10/27 06:01:01;;;;;;;99.53;43.37;;;;;;;8.78;100.00;101584.59;5087870;57;1141621;-75
2022/10/27 06:06:08;;;;;;;84.23;37.93;;;;;;;8.83;100.00;101580.86;5086188;57;1141640;-76
2022/10/27 06:11:13;;;;;;;98.83;45.30;;;;;;;8.86;100.00;101585.48;5042853;58;1141137;-74
2022/10/27 06:16:24;;;;;;;80.00;37.67;;;;;;;8.94;100.00;101591.22;5042754;58;1141142;-74
2022/10/27 06:21:30;;;;;;;83.83;40.47;;;;;;;8.87;100.00;101604.34;5042678;58;1141085;-75
2022/10/27 06:26:36;;;;;;;89.97;38.27;;;;;;;8.96;100.00;101614.42;5042734;58;1139051;-76
2022/10/27 06:31:42;;;;;;;55.07;24.27;;;;;;;9.06;100.00;101613.45;5062975;57;1139126;-77
2022/10/27 06:36:48;;;;;;;41.43;21.07;;;;;;;9.10;100.00;101626.41;5064868;57;1143124;-76
2022/10/27 06:41:54;;;;;;;27.27;16.70;;;;;;;9.15;100.00;101636.72;5068970;57;1143185;-75
2022/10/27 06:47:00;;;;;;;38.10;23.70;;;;;;;9.20;100.00;101641.27;5061555;57;1143141;-76
2022/10/27 06:52:08;;;;;;;46.20;24.27;;;;;;;9.29;100.00;101638.15;5087457;57;1142806;-76
2022/10/27 06:57:14;;;;;;;32.47;17.97;;;;;;;9.51;100.00;101633.37;5073888;57;1143097;-75
2022/10/27 07:02:21;;;;;;;36.90;15.93;;;;;;;9.79;100.00;101631.83;5142273;57;1143184;-75
2022/10/27 07:07:27;;;;;;;25.67;15.23;;;;;;;10.01;100.00;101631.00;5156538;57;1143194;-75
2022/10/27 07:12:32;;;;;;;21.13;14.37;;;;;;;10.26;100.00;101637.53;5095899;57;1145251;-75
2022/10/27 07:17:38;;;;;;;19.60;12.77;;;;;;;10.45;100.00;101641.66;5072669;57;1145487;-76
2022/10/27 07:22:44;;;;;;;18.40;12.90;;;;;;;10.68;100.00;101640.77;5072529;58;1145260;-76
2022/10/27 07:27:54;;;;;;;22.87;10.73;;;;;;;10.89;100.00;101646.92;5072601;58;1145344;-74
2022/10/27 07:32:59;;;;;;;18.63;12.43;;;;;;;11.07;100.00;101666.59;5072526;58;1145237;-75
2022/10/27 07:38:06;;;;;;;19.57;12.27;;;;;;;11.13;100.00;101672.85;5072753;58;1145186;-76
2022/10/27 07:43:13;;;;;;;23.30;12.00;;;;;;;11.22;100.00;101678.89;5148507;57;1145187;-77
2022/10/27 07:48:18;;;;;;;22.87;12.00;;;;;;;11.37;100.00;101685.89;5086361;57;1145248;-77
2022/10/27 07:53:24;;;;;;;20.27;13.37;;;;;;;11.53;100.00;101695.05;5124139;57;1145255;-75
2022/10/27 07:58:30;;;;;;;26.57;11.07;;;;;;;11.92;100.00;101694.33;5087121;57;1145297;-75
2022/10/27 08:03:36;;;;;;;24.60;13.13;;;;;;;11.92;100.00;101694.33;4980231;59;1145288;-76
2022/10/27 08:08:42;;;;;;;18.63;12.40;;;;;;;12.13;100.00;101704.03;5091807;57;1145419;-75
2022/10/27 08:13:47;;;;;;;15.60;10.17;;;;;;;12.34;100.00;101705.29;5084825;57;1145246;-77
2022/10/27 08:18:53;;;;;;;17.13;10.93;;;;;;;12.52;100.00;101708.05;5159477;57;1145246;-75
2022/10/27 08:23:58;;;;;;;17.53;10.20;;;;;;;12.77;100.00;101704.59;5098701;57;1145293;-75
2022/10/27 08:29:04;;;;;;;15.17;8.67;;;;;;;12.96;100.00;101705.52;5081252;58;1145317;-77
2022/10/27 08:34:10;;;;;;;13.17;8.83;;;;;;;13.18;100.00;101696.45;5081153;58;1143218;-76
2022/10/27 08:39:16;;;;;;;15.10;9.93;;;;;;;13.44;100.00;101700.44;5086402;57;1143361;-74
2022/10/27 08:44:43;;;;;;;14.63;10.03;;;;;;;13.57;100.00;101704.77;5081314;57;1143453;-76
2022/10/27 08:50:12;;;;;;;16.60;9.17;;;;;;;13.79;100.00;101700.55;5102780;57;1145250;-72
2022/10/27 08:55:26;;;;;;;17.43;9.90;;;;;;;14.03;100.00;101696.97;5082687;57;1143164;-72
2022/10/27 09:00:37;;;;;;;15.80;10.20;;;;;;;14.14;100.00;101707.30;5090228;57;1143271;-76
2022/10/27 09:06:12;;;;;;;17.33;9.80;;;;;;;14.24;100.00;101700.32;5086694;57;1143160;-75
2022/10/27 09:11:51;;;;;;;22.33;9.97;;;;;;;14.36;100.00;101706.91;5108155;57;1141000;-75
2022/10/27 09:17:10;;;;;;;15.83;8.73;;;;;;;14.45;100.00;101709.41;5093329;57;1141108;-71
2022/10/27 09:22:21;;;;;;;12.97;8.83;;;;;;;14.52;100.00;101714.63;5088330;57;1139308;-78
2022/10/27 09:27:26;;;;;;;12.77;9.00;;;;;;;14.61;100.00;101711.77;5077158;57;1143026;-79
2022/10/27 09:32:35;;;;;;;14.25;9.30;;;;;;;14.69;100.00;101724.01;5081782;58;1143106;-75
2022/10/27 09:37:41;;;;;;;15.00;9.07;;;;;;;14.80;100.00;101728.06;5081704;58;1143101;-76
2022/10/27 09:42:57;;;;;;;11.23;7.73;;;;;;;14.99;100.00;101725.66;5086831;57;1143172;-76
2022/10/27 09:48:04;;;;;;;20.77;9.03;;;;;;;14.99;100.00;101725.66;5090622;57;1143384;-74
2022/10/27 09:53:38;;;;;;;23.03;10.03;;;;;;;15.13;100.00;101731.26;5085592;57;1143111;-73
2022/10/27 09:58:57;;;;;;;12.67;8.33;;;;;;;15.28;100.00;101729.22;5025932;58;1145348;-73
2022/10/27 10:04:11;;;;;;;18.03;8.03;;;;;;;15.41;100.00;101724.64;4994643;58;1142486;-74
2022/10/27 10:09:23;;;;;;;15.45;8.18;;;;;;;15.59;100.00;101729.86;5003446;58;1143168;-77
2022/10/27 10:14:29;;;;;;;17.80;7.15;;;;;;;15.70;100.00;101727.22;4969543;58;1143346;-75
2022/10/27 10:19:34;;;;;;;11.97;6.73;;;;;;;15.85;100.00;101724.28;4939352;59;1143201;-70
2022/10/27 10:24:42;;;;;;;11.57;6.90;;;;;;;15.93;100.00;101727.16;5009823;59;1143244;-76
2022/10/27 10:29:50;;;;;;;18.97;8.47;;;;;;;16.01;100.00;101730.08;4836189;59;1143294;-76
2022/10/27 10:34:56;;;;;;;15.07;6.97;;;;;;;16.17;100.00;101726.52;4994997;59;1143216;-74
2022/10/27 10:40:17;;;;;;;16.33;7.37;;;;;;;16.29;100.00;101723.33;4962069;58;1143145;-76
2022/10/27 10:45:25;;;;;;;16.07;7.60;;;;;;;16.35;100.00;101727.66;4966982;59;1143160;-71
2022/10/27 10:50:33;;;;;;;17.67;7.77;;;;;;;16.43;100.00;101718.54;5006121;59;1143238;-73
2022/10/27 10:55:39;;;;;;;18.33;6.33;;;;;;;16.51;100.00;101726.74;4977702;59;1143142;-77
2022/10/27 11:00:57;;;;;;;23.60;6.63;;;;;;;16.63;100.00;101726.27;4988989;59;1143463;-75
2022/10/27 11:06:06;;;;;;;12.87;5.30;;;;;;;16.75;100.00;101731.91;5133972;57;1141047;-72
2022/10/27 11:11:19;;;;;;;10.80;6.03;;;;;;;16.94;100.00;101728.52;5101528;57;1141050;-75
2022/10/27 11:16:26;;;;;;;13.87;7.07;;;;;;;17.16;100.00;101731.53;5091672;57;1141137;-77
2022/10/27 11:21:46;;;;;;;7.10;5.27;;;;;;;17.28;100.00;101736.30;5050373;58;1141220;-79
2022/10/27 11:26:59;;;;;;;11.30;5.90;;;;;;;17.42;100.00;101735.45;5081488;57;1139297;-76
2022/10/27 11:32:28;;;;;;;11.33;6.70;;;;;;;17.57;100.00;101724.75;5098435;57;1141288;-72
2022/10/27 11:38:02;;;;;;;12.60;5.27;;;;;;;17.63;100.00;101730.06;5103539;57;1141305;-74
2022/10/27 11:43:11;;;;;;;;;;;;;;;17.76;100.00;101732.53;5096419;57;1143193;-79
2022/10/27 11:48:23;;;;;;;14.53;6.17;;;;;;;17.82;100.00;101738.69;5098885;57;978410;-73
2022/10/27 11:53:29;;;;;;;61.83;25.40;;;;;;;17.84;100.00;101738.06;5101495;57;1141044;-79
2022/10/27 11:58:57;;;;;;;31.37;12.18;;;;;;;18.01;100.00;101736.56;5075174;57;1145286;-80
2022/10/27 12:04:40;;;;;;;75.47;32.00;;;;;;;18.22;100.00;101730.59;5125036;57;1145357;-81
2022/10/27 12:09:59;;;;;;;23.23;11.60;;;;;;;18.45;100.00;101730.70;5017337;57;1145322;-76
2022/10/27 12:15:37;;;;;;;26.46;14.86;;;;;;;18.60;100.00;101732.00;5021083;57;1145206;-68
2022/10/27 12:20:52;;;;;;;17.87;11.03;;;;;;;18.68;100.00;101725.92;5084460;57;1145233;-73
2022/10/27 12:26:14;;;;;;;42.95;22.80;;;;;;;18.60;100.00;101726.64;5046448;57;1145544;-72
2022/10/27 12:31:25;;;;;;;38.07;16.90;;;;;;;18.66;100.00;101732.41;5050932;57;1143146;-73
2022/10/27 12:36:52;;;;;;;20.72;10.90;;;;;;;18.73;100.00;101737.56;5042322;58;1143137;-77
2022/10/27 12:42:34;;;;;;;41.63;17.48;;;;;;;18.92;100.00;101738.89;5042324;58;1143225;-75
2022/10/27 12:48:02;;;;;;;18.25;11.78;;;;;;;19.13;100.00;101733.33;4917748;59;1143595;-73
2022/10/27 12:53:33;;;;;;;19.87;11.43;;;;;;;19.27;100.00;101732.37;5107807;57;1145204;-78
2022/10/27 12:58:52;;;;;;;12.37;9.38;;;;;;;19.22;100.00;101727.95;5056199;57;1145402;-73
2022/10/27 13:04:27;;;;;;;19.15;10.15;;;;;;;18.96;100.00;101726.87;5081674;57;1143589;-76
2022/10/27 13:09:40;;;;;;;16.45;9.28;;;;;;;18.88;100.00;101729.44;5084432;57;1145249;-75
2022/10/27 13:15:23;;;;;;;14.28;9.95;;;;;;;18.97;100.00;101719.17;5105933;57;1143117;-76
2022/10/27 13:21:00;;;;;;;15.13;10.53;;;;;;;19.15;100.00;101713.92;5052239;58;1143329;-75
2022/10/27 13:26:46;;;;;;;13.25;9.58;;;;;;;19.23;100.00;101719.42;5042790;58;1145251;-76
2022/10/27 13:32:28;;;;;;;13.93;8.93;;;;;;;19.21;100.00;101721.39;5042927;58;1141310;-77
2022/10/27 13:37:53;;;;;;;19.80;9.65;;;;;;;19.11;100.00;101716.53;5015913;58;1141083;-72
2022/10/27 13:43:19;;;;;;;12.25;7.75;;;;;;;19.17;100.00;101716.81;5042884;58;1141047;-77
2022/10/27 13:48:30;;;;;;;13.43;9.10;;;;;;;19.49;100.00;101705.72;4840905;60;1143353;-74
2022/10/27 13:53:35;;;;;;;10.15;7.67;;;;;;;19.92;100.00;101709.08;4905569;59;1143235;-73
2022/10/27 13:58:58;;;;;;;13.70;8.48;;;;;;;20.58;100.00;101712.80;4846413;60;1143229;-71
2022/10/27 14:04:28;;;;;;;21.35;8.78;;;;;;;21.08;100.00;101718.91;4835921;60;1143248;-77
2022/10/27 14:09:44;;;;;;;17.85;9.83;;;;;;;20.95;98.53;101711.72;4839568;61;1143167;-72
2022/10/27 14:14:51;;;;;;;16.55;7.90;;;;;;;20.20;99.39;101709.03;4839645;61;1141184;-71
2022/10/27 14:20:30;;;;;;;16.60;11.03;;;;;;;19.78;100.00;101716.30;4957965;58;1141314;-76
2022/10/27 14:25:36;;;;;;;12.23;8.93;;;;;;;19.46;100.00;101725.25;5000605;58;1145380;-69
2022/10/27 14:30:44;;;;;;;14.63;8.78;;;;;;;19.41;100.00;101728.36;5093746;57;1143142;-77
2022/10/27 14:35:52;;;;;;;16.75;8.63;;;;;;;19.59;100.00;101727.12;5093446;57;1143109;-74
2022/10/27 14:40:57;;;;;;;16.37;8.18;;;;;;;19.34;100.00;101731.30;5089982;57;1143222;-75
2022/10/27 14:46:04;;;;;;;10.65;7.67;;;;;;;19.20;100.00;101731.77;5041533;57;1143281;-73
2022/10/27 14:51:16;;;;;;;14.30;7.22;;;;;;;19.08;100.00;101732.94;5093394;57;1143410;-79
2022/10/27 14:56:29;;;;;;;14.55;8.15;;;;;;;19.02;100.00;101728.98;5158107;57;1143109;-75
2022/10/27 15:01:39;;;;;;;16.02;6.83;;;;;;;18.91;100.00;101727.32;5167261;57;1143207;-70
2022/10/27 15:06:46;;;;;;;15.03;8.80;;;;;;;18.75;100.00;101731.57;5156271;57;1143172;-78
2022/10/27 15:11:52;;;;;;;16.00;9.08;;;;;;;18.51;100.00;101727.93;5156400;57;1141117;-71
2022/10/27 15:16:58;;;;;;;23.73;10.63;;;;;;;18.31;100.00;101727.10;5143546;57;1141097;-79
2022/10/27 15:22:04;;;;;;;18.88;11.14;;;;;;;18.21;100.00;101719.03;5072668;57;1143159;-75
2022/10/27 15:27:13;;;;;;;31.62;15.32;;;;;;;18.16;100.00;101719.12;5072517;58;1143159;-75
2022/10/27 15:32:42;;;;;;;29.30;14.50;;;;;;;18.14;100.00;101716.58;4979100;58;1143119;-70
2022/10/27 15:37:43;;;;;;;42.43;16.52;;;;;;;18.04;100.00;101717.52;4978318;58;1143105;-76
2022/10/27 15:42:49;;;;;;;47.00;14.38;;;;;;;17.89;100.00;101718.41;5072599;58;1143157;-76
2022/10/27 15:47:55;;;;;;;46.48;15.53;;;;;;;17.75;100.00;101718.30;5072539;58;1143163;-76
2022/10/27 15:53:14;;;;;;;44.23;17.07;;;;;;;17.70;100.00;101712.53;5072490;58;1143209;-78
2022/10/27 15:58:38;;;;;;;37.45;16.70;;;;;;;17.64;100.00;101716.23;5075346;57;1143265;-72
2022/10/27 16:03:59;;;;;;;46.35;17.90;;;;;;;17.56;100.00;101716.89;5156501;57;1145207;-69
2022/10/27 16:09:07;;;;;;;68.05;21.27;;;;;;;17.40;100.00;101726.75;5152179;57;1145186;-72
2022/10/27 16:14:15;;;;;;;148.70;66.27;;;;;;;17.27;100.00;101726.09;5156259;57;1145222;-75
2022/10/27 16:19:21;;;;;;;52.77;26.50;;;;;;;17.20;100.00;101728.95;5103446;57;1147361;-76
2022/10/27 16:24:28;;;;;;;61.95;37.53;;;;;;;17.13;100.00;101730.45;5073028;58;1145238;-75
2022/10/27 16:29:34;;;;;;;43.50;21.10;;;;;;;17.01;100.00;101730.17;5073035;58;1145254;-70
2022/10/27 16:34:40;;;;;;;48.90;26.47;;;;;;;16.86;100.00;101730.50;5073124;58;1145277;-73
2022/10/27 16:39:45;;;;;;;45.10;23.30;;;;;;;16.74;100.00;101728.02;5073017;58;1145272;-79
2022/10/27 16:44:51;;;;;;;100.40;46.00;;;;;;;16.69;100.00;101725.73;5073008;58;1145209;-73
2022/10/27 16:49:58;;;;;;;162.00;64.03;;;;;;;16.64;100.00;101723.95;5073060;58;1147897;-73
2022/10/27 16:55:08;;;;;;;73.13;31.90;;;;;;;16.57;100.00;101725.88;5150541;57;1147538;-70
2022/10/27 17:00:15;;;;;;;78.13;30.20;;;;;;;16.40;100.00;101731.28;5156849;57;1145221;-74
2022/10/27 17:05:21;;;;;;;73.53;32.93;;;;;;;16.31;100.00;101732.06;5164767;57;1145306;-79
2022/10/27 17:10:27;;;;;;;47.80;21.10;;;;;;;16.27;100.00;101734.13;5165846;57;1145462;-77
2022/10/27 17:15:34;;;;;;;46.47;19.27;;;;;;;16.23;100.00;101737.16;5165774;57;1145253;-75
2022/10/27 17:20:41;;;;;;;48.85;20.82;;;;;;;16.14;100.00;101733.44;5090762;57;1145452;-68
2022/10/27 17:25:47;;;;;;;71.63;24.60;;;;;;;15.98;100.00;101738.33;5081527;58;1145250;-72
2022/10/27 17:30:53;;;;;;;64.47;31.03;;;;;;;15.82;100.00;101742.23;5081906;58;1145264;-77
2022/10/27 17:36:06;;;;;;;66.33;34.37;;;;;;;15.68;100.00;101743.82;5081754;58;1145232;-75
2022/10/27 17:41:12;;;;;;;63.57;31.67;;;;;;;15.63;100.00;101735.81;5085530;58;1145158;-74
2022/10/27 17:46:21;;;;;;;69.43;35.40;;;;;;;15.63;100.00;101736.66;5081752;58;1145331;-71
2022/10/27 17:51:33;;;;;;;60.67;29.77;;;;;;;15.37;100.00;101720.52;5098999;57;1145424;-79
2022/10/27 17:56:39;;;;;;;55.90;27.17;;;;;;;15.37;100.00;101720.52;5096657;57;1145344;-75
2022/10/27 18:01:47;;;;;;;46.53;23.30;;;;;;;15.27;100.00;101728.87;5111072;57;1145393;-71
2022/10/27 18:06:52;;;;;;;38.77;22.60;;;;;;;15.10;100.00;101730.19;5155594;57;1145278;-76
2022/10/27 18:11:58;;;;;;;50.37;25.73;;;;;;;15.04;100.00;101728.84;5039534;58;1145234;-69
2022/10/27 18:17:06;;;;;;;59.93;36.10;;;;;;;15.00;100.00;101728.70;5058644;58;1145267;-72
2022/10/27 18:22:12;;;;;;;61.43;39.20;;;;;;;14.82;100.00;101728.77;5029263;58;1145259;-72
2022/10/27 18:27:18;;;;;;;64.97;38.47;;;;;;;14.77;100.00;101721.63;5035074;58;1145322;-74
2022/10/27 18:32:25;;;;;;;70.87;41.40;;;;;;;14.74;100.00;101719.20;5002792;58;1145245;-75
2022/10/27 18:37:31;;;;;;;68.93;36.97;;;;;;;14.60;100.00;101722.05;5011698;58;1145257;-75
2022/10/27 18:42:37;;;;;;;50.87;31.10;;;;;;;14.53;100.00;101723.47;5062563;58;1143170;-73
2022/10/27 18:47:44;;;;;;;44.47;25.47;;;;;;;14.51;100.00;101724.94;5072779;58;1143212;-73
2022/10/27 18:52:51;;;;;;;31.10;19.00;;;;;;;14.48;100.00;101725.64;5032588;58;1143419;-68
2022/10/27 18:57:56;;;;;;;34.53;18.70;;;;;;;14.41;100.00;101725.23;4988693;58;1143225;-73
2022/10/27 19:03:02;;;;;;;30.77;16.77;;;;;;;14.34;100.00;101727.49;5040474;57;1143169;-72
2022/10/27 19:08:08;;;;;;;30.10;16.20;;;;;;;14.26;100.00;101729.85;5156522;57;1143217;-77
2022/10/27 19:13:13;;;;;;;31.23;13.10;;;;;;;14.17;100.00;101727.88;5156583;57;1143334;-72
2022/10/27 19:18:19;;;;;;;17.20;9.30;;;;;;;14.13;100.00;101734.38;5086212;57;1143190;-72
2022/10/27 19:23:25;;;;;;;13.72;7.24;;;;;;;14.05;100.00;101727.45;5000947;58;1141118;-76
2022/10/27 19:28:35;;;;;;;16.20;7.97;;;;;;;13.98;100.00;101742.14;5072784;58;1141126;-74
2022/10/27 19:33:42;;;;;;;25.53;10.40;;;;;;;13.97;100.00;101747.09;4874670;60;1141240;-80
2022/10/27 19:38:48;;;;;;;18.80;10.20;;;;;;;14.02;100.00;101752.46;4897004;60;1143452;-73
2022/10/27 19:43:56;;;;;;;29.30;13.43;;;;;;;14.00;100.00;101753.05;4975932;59;1143210;-74
2022/10/27 19:49:05;;;;;;;21.67;10.73;;;;;;;13.96;100.00;101747.58;4979185;59;1143713;-76
2022/10/27 19:54:17;;;;;;;20.57;8.93;;;;;;;13.88;100.00;101739.31;4912760;59;1143172;-72
2022/10/27 19:59:24;;;;;;;22.13;8.95;;;;;;;13.77;100.00;101741.02;4979167;59;1138945;-78
2022/10/27 20:04:31;;;;;;;16.95;7.15;;;;;;;13.66;100.00;101740.47;5079394;58;1143009;-76
2022/10/27 20:09:37;;;;;;;27.70;14.80;;;;;;;13.56;100.00;101733.63;4963649;58;1143127;-71
2022/10/27 20:14:43;;;;;;;36.87;19.37;;;;;;;13.53;100.00;101739.16;5042583;57;1145421;-74
2022/10/27 20:19:49;;;;;;;46.20;21.30;;;;;;;13.55;100.00;101738.58;5102228;57;1145169;-70
2022/10/27 20:24:54;;;;;;;326.07;147.70;;;;;;;13.57;100.00;101731.83;5124989;57;1145243;-69
2022/10/27 20:30:01;;;;;;;163.23;78.40;;;;;;;13.55;100.00;101732.41;5124685;57;1149415;-73
2022/10/27 20:35:08;;;;;;;164.57;93.83;;;;;;;13.52;100.00;101739.27;5105821;57;1147334;-77
2022/10/27 20:40:13;;;;;;;134.77;73.30;;;;;;;13.49;100.00;101744.31;5049569;58;1147423;-72
2022/10/27 20:45:20;;;;;;;82.53;43.30;;;;;;;13.38;100.00;101732.27;5048817;57;1147326;-72
2022/10/27 20:50:26;;;;;;;50.00;25.83;;;;;;;13.33;100.00;101723.75;4937423;59;1145441;-77
2022/10/27 20:55:31;;;;;;;42.33;23.43;;;;;;;13.21;100.00;101720.63;4938490;58;1145237;-75
2022/10/27 21:00:37;;;;;;;53.03;25.63;;;;;;;13.19;100.00;101714.56;5087375;57;1145222;-75
2022/10/27 21:05:43;;;;;;;47.40;25.30;;;;;;;13.10;100.00;101705.41;5066654;57;1145502;-74
2022/10/27 21:10:54;;;;;;;55.77;29.53;;;;;;;13.01;100.00;101712.19;5094427;57;1145201;-70
2022/10/27 21:16:01;;;;;;;52.77;22.50;;;;;;;12.90;100.00;101706.77;5090900;57;1145239;-76
2022/10/27 21:21:15;;;;;;;40.50;21.30;;;;;;;12.84;100.00;101703.20;5075016;58;1145348;-72
2022/10/27 21:26:22;;;;;;;46.37;22.93;;;;;;;12.93;100.00;101714.54;5075192;58;1145232;-76
2022/10/27 21:31:31;;;;;;;44.60;26.53;;;;;;;12.92;100.00;101714.16;5080925;57;1145222;-74
2022/10/27 21:36:37;;;;;;;51.68;25.10;;;;;;;12.73;100.00;101715.03;5092224;57;1145251;-73
2022/10/27 21:41:44;;;;;;;58.37;26.50;;;;;;;12.62;100.00;101705.63;5075101;58;1145485;-75
2022/10/27 21:46:50;;;;;;;48.03;17.43;;;;;;;12.55;100.00;101704.32;5069082;57;1145164;-68
2022/10/27 21:51:58;;;;;;;15.50;9.13;;;;;;;12.58;100.00;101698.81;5111840;57;1145297;-74
2022/10/27 21:57:03;;;;;;;25.30;12.70;;;;;;;12.63;100.00;101692.73;5106076;57;1143138;-73
2022/10/27 22:02:09;;;;;;;29.10;11.03;;;;;;;12.62;100.00;101692.35;5088057;57;1145238;-71
2022/10/27 22:07:15;;;;;;;28.10;9.60;;;;;;;12.47;100.00;101694.70;5091293;57;1145262;-72
2022/10/27 22:12:21;;;;;;;21.60;10.87;;;;;;;12.21;100.00;101696.45;5004994;57;1143163;-77
2022/10/27 22:17:28;;;;;;;18.50;11.20;;;;;;;12.20;100.00;101681.48;4991872;57;1145190;-75
2022/10/27 22:22:34;;;;;;;36.27;15.33;;;;;;;12.20;100.00;101678.83;5038116;57;1145262;-75
2022/10/27 22:27:40;;;;;;;25.23;12.80;;;;;;;12.23;100.00;101676.80;5056594;57;1145198;-72
2022/10/27 22:32:46;;;;;;;22.23;11.00;;;;;;;12.21;100.00;101670.77;5031200;57;1145125;-73
2022/10/27 22:37:53;;;;;;;17.43;10.60;;;;;;;12.22;100.00;101663.66;5058347;57;1145263;-71
2022/10/27 22:42:58;;;;;;;29.13;12.83;;;;;;;12.21;100.00;101664.62;5072669;57;1145428;-77
2022/10/27 22:48:04;;;;;;;22.80;12.87;;;;;;;12.22;100.00;101659.69;5049653;57;1145220;-74
2022/10/27 22:53:09;;;;;;;24.73;10.57;;;;;;;12.22;100.00;101651.73;4989175;58;1145279;-78